Terminal Aerodrome Forecast
Issued by NWS

Home | Current Version | Previous Version | Text Only | Print | Product List | Glossary On
Versions: 1 2 3 4 5 6 7 8 9 10 11 12
000
FTUS46 KSEW 161100
TAFOLM
TAF
KOLM 161120Z 1612/1712 17007KT P6SM SCT010 BKN080 BKN200
      TEMPO 1612/1616 5SM -SHRA BKN010 OVC080
     FM162200 22007KT P6SM SCT040 BKN120
     FM171000 22007KT P6SM OVC012=

USA.gov is the U.S. government's official web portal to all federal, state and local government web resources and services.